TZ-0082 weather

Lualanje Airport
Chunya, Mbeya Region, Tanzania

Public forecast

Using degrees Celsius for public forecast. Weather courtesy of forecast.io.

METAR (pilot weather report)

Report is more than 6 hours old.

Closest report is Mbeya Airport, 60.4 nm (111.8 km) S. Retrieved 2017/09/12 06:00 UTC (2 years ago):

HTMB 120600Z 00000KT 9999 FEW018 17/07 Q////

TAF (pilot weather forecast)

Forecast is more than 12 hours old.

Closest forecast is Songwe Airport, 62.4 nm (115.5 km) SSW. Retrieved 2019/04/04 06:00 UTC (2 months ago):

TAF HTGW 040500Z 0406/0506 15010KT 9999 SCT018 FEW020CB BECMG 0412/0415 27010KT 9999 TSRA BKN025 FEW026CB